Accueil
METAR-TAF:

METAR-TAF

Aéroports :

Waterville Robert LaFleur Airport

Waterville, Maine, États-Unis

latitude: 44-32N, longitude: 069-41W, altitude: 101 m

Observation

Le bulletin a été fait il y a 54 minutes, à 11:56 UTC
Vent 10 kt de ouest/nord-ouest avec des rafales jusqu'à 16 kt
Température 9°C
Humidité 57%
Pression 1019 hPa
Visibilité: 16.1 km
Ciel clair

METAR: KWVL 011156Z AUTO 30010G16KT 10SM CLR 09/01 A3010 RMK AO2 SLP221 T00890011 10089 20011 53008

Heure: 08:50 (12:50 UTC)


TAF: absent

Observations et prévisions météorologiques de plus de 4000 aéroports (messages METAR et TAF).

Les stations disponibles sont représentées par des disques jaunes et rouges sur la carte.

Passer la souris dessus pour voir le nom de la station.

Cliquer dessus pour voir les observations et prévisions météorologiques.

Pour changer de carte: cliquez sur les boutons verts avec une croix noire pour zoomer, sur le bouton vert avec un tiret pour effectuer un zoom arrière, ou sur les flèches vertes pour les cartes adjacentes.


METAR-TAF: